Time,TemperatureF,DewpointF,PressureIn,WindDirection,WindDirectionDegrees,WindSpeedMPH,WindSpeedGustMPH,Humidity,HourlyPrecipIn,Conditions,Clouds,dailyrainin,SoftwareType,DateUTC
2013-07-05 00:11:00,69.2,49.0,29.82,North,2,0.0,1.0,49,0.00,,,0.00,weatherlink.com 1.10,2013-07-05 07:11:00,
2013-07-05 00:26:00,69.1,49.0,29.84,NW,307,0.0,5.0,49,0.00,,,0.00,weatherlink.com 1.10,2013-07-05 07:26:00,
2013-07-05 00:41:00,69.2,49.0,29.83,NW,307,0.0,0.0,48,0.00,,,0.00,weatherlink.com 1.10,2013-07-05 07:41:00,
2013-07-05 00:57:00,69.0,48.0,29.83,NW,307,0.0,0.0,48,0.00,,,0.00,weatherlink.com 1.10,2013-07-05 07:57:00,
2013-07-05 01:11:00,68.6,49.0,29.83,NW,307,0.0,0.0,49,0.00,,,0.00,weatherlink.com 1.10,2013-07-05 08:11:00,
2013-07-05 01:26:00,67.9,48.0,29.82,NW,307,0.0,0.0,50,0.00,,,0.00,weatherlink.com 1.10,2013-07-05 08:26:00,
2013-07-05 01:42:00,67.1,48.0,29.82,NW,307,0.0,1.0,51,0.00,,,0.00,weatherlink.com 1.10,2013-07-05 08:42:00,
2013-07-05 01:57:00,66.2,48.0,29.82,NW,307,0.0,0.0,53,0.00,,,0.00,weatherlink.com 1.10,2013-07-05 08:57:00,
2013-07-05 02:12:00,65.7,48.0,29.82,NW,307,0.0,0.0,54,0.00,,,0.00,weatherlink.com 1.10,2013-07-05 09:12:00,
2013-07-05 02:27:00,65.3,49.0,29.82,NW,307,0.0,1.0,55,0.00,,,0.00,weatherlink.com 1.10,2013-07-05 09:27:00,
2013-07-05 02:42:00,65.4,49.0,29.82,NW,307,0.0,0.0,55,0.00,,,0.00,weatherlink.com 1.10,2013-07-05 09:42:00,
2013-07-05 02:57:00,65.6,49.0,29.82,NW,307,0.0,0.0,55,0.00,,,0.00,weatherlink.com 1.10,2013-07-05 09:57:00,
2013-07-05 03:12:00,65.6,49.0,29.82,NW,307,0.0,0.0,56,0.00,,,0.00,weatherlink.com 1.10,2013-07-05 10:12:00,
2013-07-05 03:27:00,65.4,49.0,29.82,NW,307,0.0,0.0,56,0.00,,,0.00,weatherlink.com 1.10,2013-07-05 10:27:00,
2013-07-05 03:42:00,65.0,49.0,29.82,NW,307,0.0,0.0,57,0.00,,,0.00,weatherlink.com 1.10,2013-07-05 10:42:00,
2013-07-05 04:12:00,64.3,49.0,29.82,NW,307,0.0,0.0,59,0.00,,,0.00,weatherlink.com 1.10,2013-07-05 11:12:00,
2013-07-05 04:27:00,64.0,49.0,29.82,NW,307,0.0,0.0,59,0.00,,,0.00,weatherlink.com 1.10,2013-07-05 11:27:00,
2013-07-05 04:42:00,63.6,49.0,29.82,NW,307,0.0,1.0,60,0.00,,,0.00,weatherlink.com 1.10,2013-07-05 11:42:00,
2013-07-05 04:57:00,63.2,49.0,29.82,NW,307,0.0,0.0,61,0.00,,,0.00,weatherlink.com 1.10,2013-07-05 11:57:00,
2013-07-05 05:12:00,62.9,50.0,29.82,NW,307,0.0,0.0,62,0.00,,,0.00,weatherlink.com 1.10,2013-07-05 12:12:00,
2013-07-05 05:27:00,62.3,49.0,29.82,NW,307,0.0,1.0,62,0.00,,,0.00,weatherlink.com 1.10,2013-07-05 12:27:00,
2013-07-05 05:42:00,61.8,49.0,29.82,NW,307,0.0,0.0,64,0.00,,,0.00,weatherlink.com 1.10,2013-07-05 12:42:00,
2013-07-05 05:57:00,61.5,50.0,29.83,NW,307,0.0,1.0,65,0.00,,,0.00,weatherlink.com 1.10,2013-07-05 12:57:00,
2013-07-05 06:12:00,61.5,50.0,29.85,NW,307,0.0,1.0,66,0.00,,,0.00,weatherlink.com 1.10,2013-07-05 13:12:00,
2013-07-05 06:42:00,62.0,50.0,29.85,NW,307,0.0,1.0,66,0.00,,,0.00,weatherlink.com 1.10,2013-07-05 13:42:00,
2013-07-05 06:57:00,62.6,51.0,29.86,NW,307,0.0,0.0,65,0.00,,,0.00,weatherlink.com 1.10,2013-07-05 13:57:00,
2013-07-05 07:12:00,63.4,51.0,29.87,NW,307,0.0,1.0,65,0.00,,,0.00,weatherlink.com 1.10,2013-07-05 14:12:00,
2013-07-05 07:27:00,64.3,51.0,29.87,NW,307,0.0,2.0,63,0.00,,,0.00,weatherlink.com 1.10,2013-07-05 14:27:00,
2013-07-05 07:57:00,66.0,52.0,29.87,NW,307,0.0,0.0,62,0.00,,,0.00,weatherlink.com 1.10,2013-07-05 14:57:00,
2013-07-05 08:13:00,67.0,53.0,29.87,NW,307,0.0,1.0,62,0.00,,,0.00,weatherlink.com 1.10,2013-07-05 15:13:00,
2013-07-05 08:27:00,68.1,54.0,29.88,NW,307,0.0,0.0,60,0.00,,,0.00,weatherlink.com 1.10,2013-07-05 15:27:00,
2013-07-05 08:42:00,69.3,53.0,29.88,NW,307,0.0,1.0,56,0.00,,,0.00,weatherlink.com 1.10,2013-07-05 15:42:00,
2013-07-05 08:58:00,70.5,54.0,29.88,NW,307,1.0,1.0,56,0.00,,,0.00,weatherlink.com 1.10,2013-07-05 15:58:00,
2013-07-05 09:13:00,71.3,53.0,29.87,SW,233,1.0,3.0,53,0.00,,,0.00,weatherlink.com 1.10,2013-07-05 16:13:00,
2013-07-05 09:28:00,71.8,53.0,29.88,SW,229,1.0,5.0,51,0.00,,,0.00,weatherlink.com 1.10,2013-07-05 16:28:00,
2013-07-05 09:43:00,72.4,52.0,29.87,South,174,3.0,5.0,49,0.00,,,0.00,weatherlink.com 1.10,2013-07-05 16:43:00,
2013-07-05 09:58:00,72.8,52.0,29.87,ESE,115,3.0,8.0,48,0.00,,,0.00,weatherlink.com 1.10,2013-07-05 16:58:00,
2013-07-05 10:13:00,73.5,53.0,29.87,South,169,2.0,5.0,49,0.00,,,0.00,weatherlink.com 1.10,2013-07-05 17:13:00,
2013-07-05 10:28:00,74.3,52.0,29.86,South,180,5.0,8.0,46,0.00,,,0.00,weatherlink.com 1.10,2013-07-05 17:28:00,
2013-07-05 10:43:00,75.6,53.0,29.86,ESE,108,2.0,9.0,45,0.00,,,0.00,weatherlink.com 1.10,2013-07-05 17:43:00,
2013-07-05 10:58:00,77.5,51.0,29.86,ESE,117,3.0,15.0,40,0.00,,,0.00,weatherlink.com 1.10,2013-07-05 17:58:00,
2013-07-05 11:13:00,78.7,52.0,29.87,SSE,167,3.0,12.0,39,0.00,,,0.00,weatherlink.com 1.10,2013-07-05 18:13:00,
2013-07-05 11:28:00,79.3,51.0,29.87,SSE,168,2.0,7.0,38,0.00,,,0.00,weatherlink.com 1.10,2013-07-05 18:28:00,
2013-07-05 11:44:00,79.1,51.0,29.87,South,171,4.0,15.0,38,0.00,,,0.00,weatherlink.com 1.10,2013-07-05 18:44:00,
2013-07-05 11:58:00,79.1,52.0,29.87,SSW,205,1.0,10.0,39,0.00,,,0.00,weatherlink.com 1.10,2013-07-05 18:58:00,
2013-07-05 12:13:00,79.4,52.0,29.86,SSW,205,3.0,8.0,38,0.00,,,0.00,weatherlink.com 1.10,2013-07-05 19:13:00,
2013-07-05 12:28:00,79.4,52.0,29.86,South,189,2.0,12.0,39,0.00,,,0.00,weatherlink.com 1.10,2013-07-05 19:28:00,
2013-07-05 12:43:00,79.2,52.0,29.86,South,178,2.0,10.0,39,0.00,,,0.00,weatherlink.com 1.10,2013-07-05 19:43:00,
2013-07-05 12:58:00,79.4,53.0,29.86,South,188,4.0,7.0,40,0.00,,,0.00,weatherlink.com 1.10,2013-07-05 19:58:00,
2013-07-05 13:13:00,78.5,54.0,29.85,West,264,5.0,11.0,43,0.00,,,0.00,weatherlink.com 1.10,2013-07-05 20:13:00,
2013-07-05 13:28:00,78.4,53.0,29.84,SSW,212,8.0,11.0,42,0.00,,,0.00,weatherlink.com 1.10,2013-07-05 20:28:00,
2013-07-05 13:43:00,78.5,53.0,29.83,SSW,207,3.0,8.0,42,0.00,,,0.00,weatherlink.com 1.10,2013-07-05 20:43:00,
2013-07-05 13:58:00,77.4,53.0,29.83,WSW,252,5.0,8.0,43,0.00,,,0.00,weatherlink.com 1.10,2013-07-05 20:58:00,
2013-07-05 14:13:00,76.8,53.0,29.82,West,262,1.0,7.0,44,0.00,,,0.00,weatherlink.com 1.10,2013-07-05 21:13:00,
2013-07-05 14:28:00,78.4,53.0,29.81,SW,224,0.0,6.0,41,0.00,,,0.00,weatherlink.com 1.10,2013-07-05 21:28:00,
2013-07-05 14:43:00,78.6,52.0,29.80,East,86,0.0,5.0,39,0.00,,,0.00,weatherlink.com 1.10,2013-07-05 21:43:00,
2013-07-05 14:58:00,79.3,51.0,29.79,West,281,2.0,5.0,37,0.00,,,0.00,weatherlink.com 1.10,2013-07-05 21:58:00,
2013-07-05 15:13:00,80.0,52.0,29.78,SSE,148,3.0,6.0,38,0.00,,,0.00,weatherlink.com 1.10,2013-07-05 22:13:00,
2013-07-05 15:28:00,80.0,51.0,29.78,WSW,248,0.0,9.0,37,0.00,,,0.00,weatherlink.com 1.10,2013-07-05 22:28:00,
2013-07-05 15:43:00,78.3,51.0,29.78,WNW,292,2.0,6.0,38,0.00,,,0.00,weatherlink.com 1.10,2013-07-05 22:43:00,
2013-07-05 15:58:00,78.4,51.0,29.78,West,262,3.0,7.0,38,0.00,,,0.00,weatherlink.com 1.10,2013-07-05 22:58:00,
2013-07-05 16:13:00,80.3,49.0,29.78,West,267,3.0,6.0,34,0.00,,,0.00,weatherlink.com 1.10,2013-07-05 23:13:00,
2013-07-05 16:28:00,80.7,49.0,29.78,SSW,198,4.0,7.0,33,0.00,,,0.00,weatherlink.com 1.10,2013-07-05 23:28:00,
2013-07-05 16:43:00,79.9,49.0,29.78,SW,224,1.0,9.0,34,0.00,,,0.00,weatherlink.com 1.10,2013-07-05 23:43:00,
2013-07-05 16:59:00,80.8,50.0,29.78,West,259,3.0,6.0,34,0.00,,,0.00,weatherlink.com 1.10,2013-07-05 23:59:00,
2013-07-05 17:14:00,79.9,49.0,29.78,SSW,212,1.0,6.0,34,0.00,,,0.00,weatherlink.com 1.10,2013-07-06 00:14:00,
2013-07-05 17:29:00,79.6,49.0,29.78,WSW,247,0.0,5.0,34,0.00,,,0.00,weatherlink.com 1.10,2013-07-06 00:29:00,
2013-07-05 17:44:00,79.4,49.0,29.78,SSW,213,2.0,6.0,34,0.00,,,0.00,weatherlink.com 1.10,2013-07-06 00:44:00,
2013-07-05 17:59:00,78.8,49.0,29.78,SW,231,2.0,10.0,35,0.00,,,0.00,weatherlink.com 1.10,2013-07-06 00:59:00,
2013-07-05 18:14:00,78.8,49.0,29.79,SSW,194,0.0,5.0,35,0.00,,,0.00,weatherlink.com 1.10,2013-07-06 01:14:00,
2013-07-05 18:29:00,78.2,48.0,29.79,SW,224,0.0,5.0,35,0.00,,,0.00,weatherlink.com 1.10,2013-07-06 01:29:00,
2013-07-05 18:44:00,77.7,49.0,29.79,SSW,206,0.0,5.0,36,0.00,,,0.00,weatherlink.com 1.10,2013-07-06 01:44:00,
2013-07-05 18:59:00,77.0,49.0,29.79,SW,222,1.0,4.0,37,0.00,,,0.00,weatherlink.com 1.10,2013-07-06 01:59:00,
2013-07-05 19:14:00,76.5,49.0,29.79,SW,222,0.0,3.0,38,0.00,,,0.00,weatherlink.com 1.10,2013-07-06 02:14:00,
2013-07-05 19:29:00,75.8,49.0,29.79,SW,222,0.0,1.0,39,0.00,,,0.00,weatherlink.com 1.10,2013-07-06 02:29:00,
2013-07-05 19:44:00,75.2,49.0,29.80,SW,223,0.0,1.0,40,0.00,,,0.00,weatherlink.com 1.10,2013-07-06 02:44:00,
2013-07-05 19:59:00,74.5,49.0,29.80,SW,222,0.0,1.0,41,0.00,,,0.00,weatherlink.com 1.10,2013-07-06 02:59:00,
2013-07-05 20:14:00,73.7,49.0,29.81,SW,222,0.0,0.0,42,0.00,,,0.00,weatherlink.com 1.10,2013-07-06 03:14:00,
2013-07-05 20:29:00,72.9,49.0,29.82,SW,222,0.0,0.0,43,0.00,,,0.00,weatherlink.com 1.10,2013-07-06 03:29:00,
2013-07-05 20:44:00,72.1,49.0,29.82,SW,222,0.0,1.0,44,0.00,,,0.00,weatherlink.com 1.10,2013-07-06 03:44:00,
2013-07-05 20:59:00,71.3,49.0,29.83,SW,222,0.0,0.0,45,0.00,,,0.00,weatherlink.com 1.10,2013-07-06 03:59:00,
2013-07-05 21:14:00,70.1,48.0,29.84,SW,222,0.0,0.0,46,0.00,,,0.00,weatherlink.com 1.10,2013-07-06 04:14:00,
2013-07-05 21:29:00,69.1,48.0,29.84,SW,222,0.0,0.0,48,0.00,,,0.00,weatherlink.com 1.10,2013-07-06 04:29:00,
2013-07-05 21:44:00,68.2,48.0,29.85,SW,222,0.0,0.0,49,0.00,,,0.00,weatherlink.com 1.10,2013-07-06 04:44:00,
2013-07-05 21:59:00,67.2,48.0,29.86,SW,222,0.0,1.0,50,0.00,,,0.00,weatherlink.com 1.10,2013-07-06 04:59:00,
2013-07-05 22:14:00,66.5,48.0,29.86,SW,222,0.0,0.0,51,0.00,,,0.00,weatherlink.com 1.10,2013-07-06 05:14:00,
2013-07-05 22:29:00,65.8,48.0,29.86,SW,222,0.0,0.0,52,0.00,,,0.00,weatherlink.com 1.10,2013-07-06 05:29:00,
2013-07-05 22:44:00,65.4,48.0,29.87,SW,222,0.0,1.0,53,0.00,,,0.00,weatherlink.com 1.10,2013-07-06 05:44:00,
2013-07-05 22:59:00,65.4,48.0,29.87,SW,222,0.0,1.0,53,0.00,,,0.00,weatherlink.com 1.10,2013-07-06 05:59:00,
2013-07-05 23:14:00,65.1,47.0,29.88,SW,222,0.0,1.0,53,0.00,,,0.00,weatherlink.com 1.10,2013-07-06 06:14:00,
2013-07-05 23:29:00,64.8,48.0,29.88,SW,222,0.0,1.0,54,0.00,,,0.00,weatherlink.com 1.10,2013-07-06 06:29:00,
2013-07-05 23:44:00,64.6,47.0,29.88,SW,222,0.0,1.0,54,0.00,,,0.00,weatherlink.com 1.10,2013-07-06 06:44:00,
2013-07-05 23:59:00,64.4,48.0,29.88,SW,222,0.0,0.0,55,0.00,,,0.00,weatherlink.com 1.10,2013-07-06 06:59:00,